sensor_id;sensor_type;location;lat;lon;timestamp;temperature;humidity
2012;DHT22;1009;51.436;6.972;2023-04-03T00:02:00;3.00;99.90
2012;DHT22;1009;51.436;6.972;2023-04-03T00:04:26;2.90;99.90
2012;DHT22;1009;51.436;6.972;2023-04-03T00:06:53;3.00;99.90
2012;DHT22;1009;51.436;6.972;2023-04-03T00:09:20;3.00;99.90
2012;DHT22;1009;51.436;6.972;2023-04-03T00:11:46;2.80;99.90
2012;DHT22;1009;51.436;6.972;2023-04-03T00:14:13;2.90;99.90
2012;DHT22;1009;51.436;6.972;2023-04-03T00:16:41;2.70;99.90
2012;DHT22;1009;51.436;6.972;2023-04-03T00:19:08;2.60;99.90
2012;DHT22;1009;51.436;6.972;2023-04-03T00:21:37;2.90;99.90
2012;DHT22;1009;51.436;6.972;2023-04-03T00:24:04;2.80;99.90
2012;DHT22;1009;51.436;6.972;2023-04-03T00:26:31;2.80;99.90
2012;DHT22;1009;51.436;6.972;2023-04-03T00:28:57;2.60;99.90
2012;DHT22;1009;51.436;6.972;2023-04-03T00:31:24;2.60;99.90
2012;DHT22;1009;51.436;6.972;2023-04-03T00:33:52;2.90;99.90
2012;DHT22;1009;51.436;6.972;2023-04-03T00:36:19;2.60;99.90
2012;DHT22;1009;51.436;6.972;2023-04-03T00:38:45;2.60;99.90
2012;DHT22;1009;51.436;6.972;2023-04-03T00:41:12;2.70;99.90
2012;DHT22;1009;51.436;6.972;2023-04-03T00:43:39;2.70;99.90
2012;DHT22;1009;51.436;6.972;2023-04-03T00:46:05;2.80;99.90
2012;DHT22;1009;51.436;6.972;2023-04-03T00:48:35;2.70;99.90
2012;DHT22;1009;51.436;6.972;2023-04-03T00:51:05;2.80;99.90
2012;DHT22;1009;51.436;6.972;2023-04-03T00:53:35;2.70;99.90
2012;DHT22;1009;51.436;6.972;2023-04-03T00:56:06;2.50;99.90
2012;DHT22;1009;51.436;6.972;2023-04-03T00:58:38;2.70;99.90
2012;DHT22;1009;51.436;6.972;2023-04-03T01:01:08;2.70;99.90
2012;DHT22;1009;51.436;6.972;2023-04-03T01:03:36;2.70;99.90
2012;DHT22;1009;51.436;6.972;2023-04-03T01:06:04;2.50;99.90
2012;DHT22;1009;51.436;6.972;2023-04-03T01:08:32;2.40;99.90
2012;DHT22;1009;51.436;6.972;2023-04-03T01:10:59;2.50;99.90
2012;DHT22;1009;51.436;6.972;2023-04-03T01:13:27;2.30;99.90
2012;DHT22;1009;51.436;6.972;2023-04-03T01:15:54;2.30;99.90
2012;DHT22;1009;51.436;6.972;2023-04-03T01:18:23;2.20;99.90
2012;DHT22;1009;51.436;6.972;2023-04-03T01:23:57;2.10;99.90
2012;DHT22;1009;51.436;6.972;2023-04-03T01:26:24;2.10;99.90
2012;DHT22;1009;51.436;6.972;2023-04-03T01:28:54;2.10;99.90
2012;DHT22;1009;51.436;6.972;2023-04-03T01:31:25;2.10;99.90
2012;DHT22;1009;51.436;6.972;2023-04-03T01:33:55;2.10;99.90
2012;DHT22;1009;51.436;6.972;2023-04-03T01:36:23;2.30;99.90
2012;DHT22;1009;51.436;6.972;2023-04-03T01:38:50;2.30;99.90
2012;DHT22;1009;51.436;6.972;2023-04-03T01:41:17;2.40;99.90
2012;DHT22;1009;51.436;6.972;2023-04-03T01:43:44;2.70;99.90
2012;DHT22;1009;51.436;6.972;2023-04-03T01:46:11;2.80;99.90
2012;DHT22;1009;51.436;6.972;2023-04-03T01:48:38;2.80;99.90
2012;DHT22;1009;51.436;6.972;2023-04-03T01:51:06;3.00;99.90
2012;DHT22;1009;51.436;6.972;2023-04-03T01:53:33;2.90;99.90
2012;DHT22;1009;51.436;6.972;2023-04-03T01:55:59;2.90;99.90
2012;DHT22;1009;51.436;6.972;2023-04-03T01:58:26;3.10;99.90
2012;DHT22;1009;51.436;6.972;2023-04-03T02:00:53;3.10;99.90
2012;DHT22;1009;51.436;6.972;2023-04-03T02:03:20;3.20;99.90
2012;DHT22;1009;51.436;6.972;2023-04-03T02:05:46;3.20;99.90
2012;DHT22;1009;51.436;6.972;2023-04-03T02:08:15;3.30;99.90
2012;DHT22;1009;51.436;6.972;2023-04-03T02:10:43;3.30;99.90
2012;DHT22;1009;51.436;6.972;2023-04-03T02:13:10;3.20;99.90
2012;DHT22;1009;51.436;6.972;2023-04-03T02:15:38;3.20;99.90
2012;DHT22;1009;51.436;6.972;2023-04-03T02:18:04;3.40;99.90
2012;DHT22;1009;51.436;6.972;2023-04-03T02:20:31;3.40;99.90
2012;DHT22;1009;51.436;6.972;2023-04-03T02:22:58;3.30;99.90
2012;DHT22;1009;51.436;6.972;2023-04-03T02:25:27;3.40;99.90
2012;DHT22;1009;51.436;6.972;2023-04-03T02:27:53;3.20;99.90
2012;DHT22;1009;51.436;6.972;2023-04-03T02:30:20;3.30;99.90
2012;DHT22;1009;51.436;6.972;2023-04-03T02:32:47;3.40;99.90
2012;DHT22;1009;51.436;6.972;2023-04-03T02:35:13;3.30;99.90
2012;DHT22;1009;51.436;6.972;2023-04-03T02:37:40;3.50;99.90
2012;DHT22;1009;51.436;6.972;2023-04-03T02:40:08;3.50;99.90
2012;DHT22;1009;51.436;6.972;2023-04-03T02:42:38;3.50;99.90
2012;DHT22;1009;51.436;6.972;2023-04-03T02:45:06;3.40;99.90
2012;DHT22;1009;51.436;6.972;2023-04-03T02:47:32;3.40;99.90
2012;DHT22;1009;51.436;6.972;2023-04-03T02:49:59;3.40;99.90
2012;DHT22;1009;51.436;6.972;2023-04-03T02:52:26;3.40;99.90
2012;DHT22;1009;51.436;6.972;2023-04-03T02:54:52;3.40;99.90
2012;DHT22;1009;51.436;6.972;2023-04-03T02:57:19;3.30;99.90
2012;DHT22;1009;51.436;6.972;2023-04-03T02:59:47;3.40;99.90
2012;DHT22;1009;51.436;6.972;2023-04-03T03:02:14;3.30;99.90
2012;DHT22;1009;51.436;6.972;2023-04-03T03:04:41;3.40;99.90
2012;DHT22;1009;51.436;6.972;2023-04-03T03:07:07;3.30;99.90
2012;DHT22;1009;51.436;6.972;2023-04-03T03:09:34;3.30;99.90
2012;DHT22;1009;51.436;6.972;2023-04-03T03:12:01;3.20;99.90
2012;DHT22;1009;51.436;6.972;2023-04-03T03:14:28;3.30;99.90
2012;DHT22;1009;51.436;6.972;2023-04-03T03:16:56;3.30;99.90
2012;DHT22;1009;51.436;6.972;2023-04-03T03:19:22;3.10;99.90
2012;DHT22;1009;51.436;6.972;2023-04-03T03:21:49;3.00;99.90
2012;DHT22;1009;51.436;6.972;2023-04-03T03:24:16;3.00;99.90
2012;DHT22;1009;51.436;6.972;2023-04-03T03:26:43;3.00;99.90
2012;DHT22;1009;51.436;6.972;2023-04-03T03:29:10;3.10;99.90
2012;DHT22;1009;51.436;6.972;2023-04-03T03:31:36;3.00;99.90
2012;DHT22;1009;51.436;6.972;2023-04-03T03:34:04;3.00;99.90
2012;DHT22;1009;51.436;6.972;2023-04-03T03:36:31;3.00;99.90
2012;DHT22;1009;51.436;6.972;2023-04-03T03:38:58;3.00;99.90
2012;DHT22;1009;51.436;6.972;2023-04-03T03:41:24;3.00;99.90
2012;DHT22;1009;51.436;6.972;2023-04-03T03:43:51;2.90;99.90
2012;DHT22;1009;51.436;6.972;2023-04-03T03:46:18;3.00;99.90
2012;DHT22;1009;51.436;6.972;2023-04-03T03:48:44;3.00;99.90
2012;DHT22;1009;51.436;6.972;2023-04-03T03:51:13;2.90;99.90
2012;DHT22;1009;51.436;6.972;2023-04-03T03:53:39;2.90;99.90
2012;DHT22;1009;51.436;6.972;2023-04-03T03:56:06;3.00;99.90
2012;DHT22;1009;51.436;6.972;2023-04-03T03:58:33;2.90;99.90
2012;DHT22;1009;51.436;6.972;2023-04-03T04:01:01;2.90;99.90
2012;DHT22;1009;51.436;6.972;2023-04-03T04:03:28;2.80;99.90
2012;DHT22;1009;51.436;6.972;2023-04-03T04:05:55;2.80;99.90
2012;DHT22;1009;51.436;6.972;2023-04-03T04:08:23;2.90;99.90
2012;DHT22;1009;51.436;6.972;2023-04-03T04:10:50;2.90;99.90
2012;DHT22;1009;51.436;6.972;2023-04-03T04:13:16;2.80;99.90
2012;DHT22;1009;51.436;6.972;2023-04-03T04:15:43;2.80;99.90
2012;DHT22;1009;51.436;6.972;2023-04-03T04:18:10;2.80;99.90
2012;DHT22;1009;51.436;6.972;2023-04-03T04:20:37;2.70;99.90
2012;DHT22;1009;51.436;6.972;2023-04-03T04:23:03;2.70;99.90
2012;DHT22;1009;51.436;6.972;2023-04-03T04:25:32;2.70;99.90
2012;DHT22;1009;51.436;6.972;2023-04-03T04:27:59;2.70;99.90
2012;DHT22;1009;51.436;6.972;2023-04-03T04:30:25;2.70;99.90
2012;DHT22;1009;51.436;6.972;2023-04-03T04:32:53;2.60;99.90
2012;DHT22;1009;51.436;6.972;2023-04-03T04:35:19;2.60;99.90
2012;DHT22;1009;51.436;6.972;2023-04-03T04:37:46;2.70;99.90
2012;DHT22;1009;51.436;6.972;2023-04-03T04:40:13;2.60;99.90
2012;DHT22;1009;51.436;6.972;2023-04-03T04:42:41;2.60;99.90
2012;DHT22;1009;51.436;6.972;2023-04-03T04:45:08;2.70;99.90
2012;DHT22;1009;51.436;6.972;2023-04-03T04:47:35;2.70;99.90
2012;DHT22;1009;51.436;6.972;2023-04-03T04:50:02;2.80;99.90
2012;DHT22;1009;51.436;6.972;2023-04-03T04:52:29;2.80;99.90
2012;DHT22;1009;51.436;6.972;2023-04-03T04:54:56;2.80;99.90
2012;DHT22;1009;51.436;6.972;2023-04-03T04:57:23;2.70;99.90
2012;DHT22;1009;51.436;6.972;2023-04-03T04:59:51;2.80;99.90
2012;DHT22;1009;51.436;6.972;2023-04-03T05:02:18;2.70;99.90
2012;DHT22;1009;51.436;6.972;2023-04-03T05:04:45;2.70;99.90
2012;DHT22;1009;51.436;6.972;2023-04-03T05:07:11;2.60;99.90
2012;DHT22;1009;51.436;6.972;2023-04-03T05:09:38;2.50;99.90
2012;DHT22;1009;51.436;6.972;2023-04-03T05:12:07;2.50;99.90
2012;DHT22;1009;51.436;6.972;2023-04-03T05:14:34;2.50;99.90
2012;DHT22;1009;51.436;6.972;2023-04-03T05:17:02;2.60;99.90
2012;DHT22;1009;51.436;6.972;2023-04-03T05:19:29;2.50;99.90
2012;DHT22;1009;51.436;6.972;2023-04-03T05:21:55;2.70;99.90
2012;DHT22;1009;51.436;6.972;2023-04-03T05:24:22;2.50;99.90
2012;DHT22;1009;51.436;6.972;2023-04-03T05:26:49;2.40;99.90
2012;DHT22;1009;51.436;6.972;2023-04-03T05:29:16;2.50;99.90
2012;DHT22;1009;51.436;6.972;2023-04-03T05:31:42;2.50;99.90
2012;DHT22;1009;51.436;6.972;2023-04-03T05:34:11;2.30;99.90
2012;DHT22;1009;51.436;6.972;2023-04-03T05:36:38;2.40;99.90
2012;DHT22;1009;51.436;6.972;2023-04-03T05:39:04;2.40;99.90
2012;DHT22;1009;51.436;6.972;2023-04-03T05:41:31;2.30;99.90
2012;DHT22;1009;51.436;6.972;2023-04-03T05:43:58;2.40;99.90
2012;DHT22;1009;51.436;6.972;2023-04-03T05:46:25;2.30;99.90
2012;DHT22;1009;51.436;6.972;2023-04-03T05:48:51;2.40;99.90
2012;DHT22;1009;51.436;6.972;2023-04-03T05:51:24;2.20;99.90
2012;DHT22;1009;51.436;6.972;2023-04-03T05:53:58;2.40;99.90
2012;DHT22;1009;51.436;6.972;2023-04-03T05:56:26;2.40;99.90
2012;DHT22;1009;51.436;6.972;2023-04-03T05:58:52;2.40;99.90
2012;DHT22;1009;51.436;6.972;2023-04-03T06:01:20;2.40;99.90
2012;DHT22;1009;51.436;6.972;2023-04-03T06:03:47;2.40;99.90
2012;DHT22;1009;51.436;6.972;2023-04-03T06:06:14;2.40;99.90
2012;DHT22;1009;51.436;6.972;2023-04-03T06:08:42;2.40;99.90
2012;DHT22;1009;51.436;6.972;2023-04-03T06:11:09;2.40;99.90
2012;DHT22;1009;51.436;6.972;2023-04-03T06:13:35;2.40;99.90
2012;DHT22;1009;51.436;6.972;2023-04-03T06:16:02;2.50;99.90
2012;DHT22;1009;51.436;6.972;2023-04-03T06:18:29;2.60;99.90
2012;DHT22;1009;51.436;6.972;2023-04-03T06:20:56;2.50;99.90
2012;DHT22;1009;51.436;6.972;2023-04-03T06:23:24;2.50;99.90
2012;DHT22;1009;51.436;6.972;2023-04-03T06:25:52;2.60;99.90
2012;DHT22;1009;51.436;6.972;2023-04-03T06:28:18;2.70;99.90
2012;DHT22;1009;51.436;6.972;2023-04-03T06:30:45;2.60;99.90
2012;DHT22;1009;51.436;6.972;2023-04-03T06:33:12;2.60;99.90
2012;DHT22;1009;51.436;6.972;2023-04-03T06:35:39;2.70;99.90
2012;DHT22;1009;51.436;6.972;2023-04-03T06:38:06;2.80;99.90
2012;DHT22;1009;51.436;6.972;2023-04-03T06:40:35;2.90;99.90
2012;DHT22;1009;51.436;6.972;2023-04-03T06:43:03;3.00;99.90
2012;DHT22;1009;51.436;6.972;2023-04-03T06:45:30;3.00;99.90
2012;DHT22;1009;51.436;6.972;2023-04-03T06:47:57;3.10;99.90
2012;DHT22;1009;51.436;6.972;2023-04-03T06:50:24;3.10;99.90
2012;DHT22;1009;51.436;6.972;2023-04-03T06:52:51;3.00;99.90
2012;DHT22;1009;51.436;6.972;2023-04-03T06:55:18;3.10;99.90
2012;DHT22;1009;51.436;6.972;2023-04-03T06:57:45;3.20;99.90
2012;DHT22;1009;51.436;6.972;2023-04-03T07:00:14;3.30;99.90
2012;DHT22;1009;51.436;6.972;2023-04-03T07:02:44;3.30;99.90
2012;DHT22;1009;51.436;6.972;2023-04-03T07:05:11;3.30;99.90
2012;DHT22;1009;51.436;6.972;2023-04-03T07:07:38;3.30;99.90
2012;DHT22;1009;51.436;6.972;2023-04-03T07:10:07;3.30;99.90
2012;DHT22;1009;51.436;6.972;2023-04-03T07:12:33;3.40;99.90
2012;DHT22;1009;51.436;6.972;2023-04-03T07:15:00;3.50;99.90
2012;DHT22;1009;51.436;6.972;2023-04-03T07:17:29;3.70;99.90
2012;DHT22;1009;51.436;6.972;2023-04-03T07:19:56;3.70;99.90
2012;DHT22;1009;51.436;6.972;2023-04-03T07:22:23;3.80;99.90
2012;DHT22;1009;51.436;6.972;2023-04-03T07:24:50;3.80;99.90
2012;DHT22;1009;51.436;6.972;2023-04-03T07:27:16;3.90;99.90
2012;DHT22;1009;51.436;6.972;2023-04-03T07:29:44;3.90;99.90
2012;DHT22;1009;51.436;6.972;2023-04-03T07:32:10;3.90;99.90
2012;DHT22;1009;51.436;6.972;2023-04-03T07:34:38;4.00;99.90
2012;DHT22;1009;51.436;6.972;2023-04-03T07:37:05;4.10;99.90
2012;DHT22;1009;51.436;6.972;2023-04-03T07:39:32;4.30;99.90
2012;DHT22;1009;51.436;6.972;2023-04-03T07:41:59;4.50;99.90
2012;DHT22;1009;51.436;6.972;2023-04-03T07:44:26;4.60;99.90
2012;DHT22;1009;51.436;6.972;2023-04-03T07:46:53;4.70;99.90
2012;DHT22;1009;51.436;6.972;2023-04-03T07:49:21;4.60;99.90
2012;DHT22;1009;51.436;6.972;2023-04-03T07:51:50;4.50;99.90
2012;DHT22;1009;51.436;6.972;2023-04-03T07:54:16;4.40;99.90
2012;DHT22;1009;51.436;6.972;2023-04-03T07:56:43;4.60;99.90
2012;DHT22;1009;51.436;6.972;2023-04-03T07:59:10;4.70;99.90
2012;DHT22;1009;51.436;6.972;2023-04-03T08:01:37;4.70;99.90
2012;DHT22;1009;51.436;6.972;2023-04-03T08:04:04;4.80;99.90
2012;DHT22;1009;51.436;6.972;2023-04-03T08:06:32;4.80;99.90
2012;DHT22;1009;51.436;6.972;2023-04-03T08:09:02;4.70;99.90
2012;DHT22;1009;51.436;6.972;2023-04-03T08:11:30;4.80;99.90
2012;DHT22;1009;51.436;6.972;2023-04-03T08:13:57;5.00;99.90
2012;DHT22;1009;51.436;6.972;2023-04-03T08:16:24;5.20;99.90
2012;DHT22;1009;51.436;6.972;2023-04-03T08:18:52;5.30;99.90
2012;DHT22;1009;51.436;6.972;2023-04-03T08:21:19;5.40;99.90
2012;DHT22;1009;51.436;6.972;2023-04-03T08:23:53;5.60;99.90
2012;DHT22;1009;51.436;6.972;2023-04-03T08:26:24;5.50;99.90
2012;DHT22;1009;51.436;6.972;2023-04-03T08:28:52;5.40;99.90
2012;DHT22;1009;51.436;6.972;2023-04-03T08:31:19;5.40;99.90
2012;DHT22;1009;51.436;6.972;2023-04-03T08:33:46;5.60;99.90
2012;DHT22;1009;51.436;6.972;2023-04-03T08:36:18;5.50;99.90
2012;DHT22;1009;51.436;6.972;2023-04-03T08:38:46;5.60;99.90
2012;DHT22;1009;51.436;6.972;2023-04-03T08:41:16;5.60;99.90
2012;DHT22;1009;51.436;6.972;2023-04-03T08:43:59;5.60;99.90
2012;DHT22;1009;51.436;6.972;2023-04-03T08:46:37;5.80;99.90
2012;DHT22;1009;51.436;6.972;2023-04-03T08:49:11;6.00;99.90
2012;DHT22;1009;51.436;6.972;2023-04-03T08:51:47;6.20;99.90
2012;DHT22;1009;51.436;6.972;2023-04-03T08:54:23;6.40;99.90
2012;DHT22;1009;51.436;6.972;2023-04-03T08:56:50;6.30;99.90
2012;DHT22;1009;51.436;6.972;2023-04-03T08:59:26;6.30;99.90
2012;DHT22;1009;51.436;6.972;2023-04-03T09:01:54;6.30;99.90
2012;DHT22;1009;51.436;6.972;2023-04-03T09:04:22;6.20;99.90
2012;DHT22;1009;51.436;6.972;2023-04-03T09:06:52;6.30;99.90
2012;DHT22;1009;51.436;6.972;2023-04-03T09:09:30;6.40;99.90
2012;DHT22;1009;51.436;6.972;2023-04-03T09:12:03;6.20;99.90
2012;DHT22;1009;51.436;6.972;2023-04-03T09:14:43;6.20;99.90
2012;DHT22;1009;51.436;6.972;2023-04-03T09:17:15;6.30;99.90
2012;DHT22;1009;51.436;6.972;2023-04-03T09:19:52;6.60;99.90
2012;DHT22;1009;51.436;6.972;2023-04-03T09:22:23;6.90;99.90
2012;DHT22;1009;51.436;6.972;2023-04-03T09:24:57;6.70;99.90
2012;DHT22;1009;51.436;6.972;2023-04-03T09:27:25;6.70;99.90
2012;DHT22;1009;51.436;6.972;2023-04-03T09:29:55;6.70;99.90
2012;DHT22;1009;51.436;6.972;2023-04-03T09:32:27;6.40;99.90
2012;DHT22;1009;51.436;6.972;2023-04-03T09:34:57;6.70;99.90
2012;DHT22;1009;51.436;6.972;2023-04-03T09:37:38;6.80;99.90
2012;DHT22;1009;51.436;6.972;2023-04-03T09:40:12;7.00;99.90
2012;DHT22;1009;51.436;6.972;2023-04-03T09:42:55;7.10;99.90
2012;DHT22;1009;51.436;6.972;2023-04-03T09:45:26;7.20;99.90
2012;DHT22;1009;51.436;6.972;2023-04-03T09:48:05;7.30;99.90
2012;DHT22;1009;51.436;6.972;2023-04-03T09:50:33;7.70;99.90
2012;DHT22;1009;51.436;6.972;2023-04-03T09:53:05;7.80;97.80
2012;DHT22;1009;51.436;6.972;2023-04-03T09:55:32;7.90;95.30
2012;DHT22;1009;51.436;6.972;2023-04-03T09:58:00;7.90;93.70
2012;DHT22;1009;51.436;6.972;2023-04-03T10:00:33;8.00;93.60
2012;DHT22;1009;51.436;6.972;2023-04-03T10:03:00;8.10;95.10
2012;DHT22;1009;51.436;6.972;2023-04-03T10:05:33;8.30;94.40
2012;DHT22;1009;51.436;6.972;2023-04-03T10:08:19;8.40;93.60
2012;DHT22;1009;51.436;6.972;2023-04-03T10:10:47;8.20;94.00
2012;DHT22;1009;51.436;6.972;2023-04-03T10:13:16;8.20;93.80
2012;DHT22;1009;51.436;6.972;2023-04-03T10:15:50;8.30;94.00
2012;DHT22;1009;51.436;6.972;2023-04-03T10:18:28;8.30;94.50
2012;DHT22;1009;51.436;6.972;2023-04-03T10:20:58;8.40;94.50
2012;DHT22;1009;51.436;6.972;2023-04-03T10:23:28;8.70;95.20
2012;DHT22;1009;51.436;6.972;2023-04-03T10:26:02;8.80;94.80
2012;DHT22;1009;51.436;6.972;2023-04-03T10:28:42;9.00;94.20
2012;DHT22;1009;51.436;6.972;2023-04-03T10:31:17;9.10;93.10
2012;DHT22;1009;51.436;6.972;2023-04-03T10:33:58;9.10;92.90
2012;DHT22;1009;51.436;6.972;2023-04-03T10:36:38;8.80;92.30
2012;DHT22;1009;51.436;6.972;2023-04-03T10:39:15;9.10;94.00
2012;DHT22;1009;51.436;6.972;2023-04-03T10:41:53;9.20;93.20
2012;DHT22;1009;51.436;6.972;2023-04-03T10:44:31;9.30;93.50
2012;DHT22;1009;51.436;6.972;2023-04-03T10:47:08;9.50;94.40
2012;DHT22;1009;51.436;6.972;2023-04-03T10:49:45;9.60;94.90
2012;DHT22;1009;51.436;6.972;2023-04-03T10:52:21;9.50;92.60
2012;DHT22;1009;51.436;6.972;2023-04-03T10:54:56;9.40;93.60
2012;DHT22;1009;51.436;6.972;2023-04-03T10:57:28;9.40;93.30
2012;DHT22;1009;51.436;6.972;2023-04-03T10:59:59;9.30;93.30
2012;DHT22;1009;51.436;6.972;2023-04-03T11:02:31;9.50;94.50
2012;DHT22;1009;51.436;6.972;2023-04-03T11:05:01;9.60;94.00
2012;DHT22;1009;51.436;6.972;2023-04-03T11:07:36;9.60;94.80
2012;DHT22;1009;51.436;6.972;2023-04-03T11:10:10;9.80;94.00
2012;DHT22;1009;51.436;6.972;2023-04-03T11:12:42;10.00;94.50
2012;DHT22;1009;51.436;6.972;2023-04-03T11:15:12;10.10;94.40
2012;DHT22;1009;51.436;6.972;2023-04-03T11:17:45;10.20;93.80
2012;DHT22;1009;51.436;6.972;2023-04-03T11:20:18;9.80;93.10
2012;DHT22;1009;51.436;6.972;2023-04-03T11:22:50;10.10;93.70
2012;DHT22;1009;51.436;6.972;2023-04-03T11:25:20;10.10;92.30
2012;DHT22;1009;51.436;6.972;2023-04-03T11:27:52;9.90;94.00
2012;DHT22;1009;51.436;6.972;2023-04-03T11:30:22;10.10;93.70
2012;DHT22;1009;51.436;6.972;2023-04-03T11:33:13;10.10;92.20
2012;DHT22;1009;51.436;6.972;2023-04-03T11:35:44;9.90;92.00
2012;DHT22;1009;51.436;6.972;2023-04-03T11:38:18;9.80;92.40
2012;DHT22;1009;51.436;6.972;2023-04-03T11:40:47;9.60;92.60
2012;DHT22;1009;51.436;6.972;2023-04-03T11:43:24;9.70;93.60
2012;DHT22;1009;51.436;6.972;2023-04-03T11:45:56;9.90;92.20
2012;DHT22;1009;51.436;6.972;2023-04-03T11:48:49;9.80;92.20
2012;DHT22;1009;51.436;6.972;2023-04-03T11:51:42;10.10;92.10
2012;DHT22;1009;51.436;6.972;2023-04-03T11:54:35;10.50;91.90
2012;DHT22;1009;51.436;6.972;2023-04-03T12:03:33;10.10;90.80
2012;DHT22;1009;51.436;6.972;2023-04-03T12:09:04;10.10;90.30
2012;DHT22;1009;51.436;6.972;2023-04-03T12:11:48;10.20;89.10
2012;DHT22;1009;51.436;6.972;2023-04-03T12:14:16;10.40;90.40
2012;DHT22;1009;51.436;6.972;2023-04-03T12:16:45;10.30;89.20
2012;DHT22;1009;51.436;6.972;2023-04-03T12:19:34;10.30;88.30
2012;DHT22;1009;51.436;6.972;2023-04-03T12:22:13;10.50;90.60
2012;DHT22;1009;51.436;6.972;2023-04-03T12:24:43;11.00;90.80
2012;DHT22;1009;51.436;6.972;2023-04-03T12:27:29;11.20;90.40
2012;DHT22;1009;51.436;6.972;2023-04-03T12:30:14;11.30;91.20
2012;DHT22;1009;51.436;6.972;2023-04-03T12:32:51;11.20;87.20
2012;DHT22;1009;51.436;6.972;2023-04-03T12:35:27;10.90;89.40
2012;DHT22;1009;51.436;6.972;2023-04-03T12:38:25;10.50;89.30
2012;DHT22;1009;51.436;6.972;2023-04-03T12:41:10;10.90;90.40
2012;DHT22;1009;51.436;6.972;2023-04-03T12:43:49;10.90;88.20
2012;DHT22;1009;51.436;6.972;2023-04-03T12:46:19;10.80;87.50
2012;DHT22;1009;51.436;6.972;2023-04-03T12:48:49;11.00;90.00
2012;DHT22;1009;51.436;6.972;2023-04-03T12:51:19;11.20;88.50
2012;DHT22;1009;51.436;6.972;2023-04-03T12:53:47;11.00;86.30
2012;DHT22;1009;51.436;6.972;2023-04-03T12:56:21;11.00;87.50
2012;DHT22;1009;51.436;6.972;2023-04-03T12:58:49;11.30;87.60
2012;DHT22;1009;51.436;6.972;2023-04-03T13:01:18;11.30;86.90
2012;DHT22;1009;51.436;6.972;2023-04-03T13:03:50;11.20;86.50
2012;DHT22;1009;51.436;6.972;2023-04-03T13:06:21;11.40;90.30
2012;DHT22;1009;51.436;6.972;2023-04-03T13:08:49;11.60;87.20
2012;DHT22;1009;51.436;6.972;2023-04-03T13:11:19;11.40;86.20
2012;DHT22;1009;51.436;6.972;2023-04-03T13:13:57;11.40;87.40
2012;DHT22;1009;51.436;6.972;2023-04-03T13:16:25;10.70;83.10
2012;DHT22;1009;51.436;6.972;2023-04-03T13:18:53;10.80;86.40
2012;DHT22;1009;51.436;6.972;2023-04-03T13:21:22;10.60;88.10
2012;DHT22;1009;51.436;6.972;2023-04-03T13:23:52;10.80;87.80
2012;DHT22;1009;51.436;6.972;2023-04-03T13:26:27;10.80;87.50
2012;DHT22;1009;51.436;6.972;2023-04-03T13:28:57;11.00;85.80
2012;DHT22;1009;51.436;6.972;2023-04-03T13:31:27;11.00;85.20
2012;DHT22;1009;51.436;6.972;2023-04-03T13:33:58;11.10;86.10
2012;DHT22;1009;51.436;6.972;2023-04-03T13:36:34;11.40;87.40
2012;DHT22;1009;51.436;6.972;2023-04-03T13:39:04;11.60;85.30
2012;DHT22;1009;51.436;6.972;2023-04-03T13:41:34;11.50;85.20
2012;DHT22;1009;51.436;6.972;2023-04-03T13:44:33;11.50;86.90
2012;DHT22;1009;51.436;6.972;2023-04-03T13:47:14;11.60;88.20
2012;DHT22;1009;51.436;6.972;2023-04-03T13:49:42;11.50;85.60
2012;DHT22;1009;51.436;6.972;2023-04-03T13:52:23;11.50;88.60
2012;DHT22;1009;51.436;6.972;2023-04-03T13:54:53;11.50;86.60
2012;DHT22;1009;51.436;6.972;2023-04-03T13:57:23;11.40;84.50
2012;DHT22;1009;51.436;6.972;2023-04-03T13:59:50;11.30;86.70
2012;DHT22;1009;51.436;6.972;2023-04-03T14:02:19;11.20;85.10
2012;DHT22;1009;51.436;6.972;2023-04-03T14:04:52;11.50;85.90
2012;DHT22;1009;51.436;6.972;2023-04-03T14:07:22;11.30;84.50
2012;DHT22;1009;51.436;6.972;2023-04-03T14:09:50;11.40;87.90
2012;DHT22;1009;51.436;6.972;2023-04-03T14:12:19;11.50;87.70
2012;DHT22;1009;51.436;6.972;2023-04-03T14:14:50;11.60;86.40
2012;DHT22;1009;51.436;6.972;2023-04-03T14:17:18;11.90;86.80
2012;DHT22;1009;51.436;6.972;2023-04-03T14:19:48;12.00;84.00
2012;DHT22;1009;51.436;6.972;2023-04-03T14:22:18;12.20;84.80
2012;DHT22;1009;51.436;6.972;2023-04-03T14:24:47;12.30;84.30
2012;DHT22;1009;51.436;6.972;2023-04-03T14:27:19;12.20;83.00
2012;DHT22;1009;51.436;6.972;2023-04-03T14:29:47;12.00;83.60
2012;DHT22;1009;51.436;6.972;2023-04-03T14:32:16;12.20;85.60
2012;DHT22;1009;51.436;6.972;2023-04-03T14:34:44;12.40;85.00
2012;DHT22;1009;51.436;6.972;2023-04-03T14:37:12;12.30;84.50
2012;DHT22;1009;51.436;6.972;2023-04-03T14:39:40;12.20;84.50
2012;DHT22;1009;51.436;6.972;2023-04-03T14:42:12;12.00;84.60
2012;DHT22;1009;51.436;6.972;2023-04-03T14:44:39;11.90;85.60
2012;DHT22;1009;51.436;6.972;2023-04-03T14:47:09;11.80;84.70
2012;DHT22;1009;51.436;6.972;2023-04-03T14:49:38;11.60;83.50
2012;DHT22;1009;51.436;6.972;2023-04-03T14:52:04;11.90;86.40
2012;DHT22;1009;51.436;6.972;2023-04-03T14:54:31;11.90;83.80
2012;DHT22;1009;51.436;6.972;2023-04-03T14:56:59;11.70;82.20
2012;DHT22;1009;51.436;6.972;2023-04-03T14:59:28;11.40;83.00
2012;DHT22;1009;51.436;6.972;2023-04-03T15:01:55;11.20;85.10
2012;DHT22;1009;51.436;6.972;2023-04-03T15:04:22;11.20;85.30
2012;DHT22;1009;51.436;6.972;2023-04-03T15:06:51;11.10;84.00
2012;DHT22;1009;51.436;6.972;2023-04-03T15:09:20;10.90;84.20
2012;DHT22;1009;51.436;6.972;2023-04-03T15:11:47;10.50;85.70
2012;DHT22;1009;51.436;6.972;2023-04-03T15:14:15;10.50;86.00
2012;DHT22;1009;51.436;6.972;2023-04-03T15:16:41;10.50;86.10
2012;DHT22;1009;51.436;6.972;2023-04-03T15:19:08;10.30;85.20
2012;DHT22;1009;51.436;6.972;2023-04-03T15:21:35;10.20;86.00
2012;DHT22;1009;51.436;6.972;2023-04-03T15:24:03;10.10;85.30
2012;DHT22;1009;51.436;6.972;2023-04-03T15:26:31;10.20;86.00
2012;DHT22;1009;51.436;6.972;2023-04-03T15:28:58;10.30;87.10
2012;DHT22;1009;51.436;6.972;2023-04-03T15:31:25;10.60;86.60
2012;DHT22;1009;51.436;6.972;2023-04-03T15:33:52;10.70;87.50
2012;DHT22;1009;51.436;6.972;2023-04-03T15:36:18;10.50;85.60
2012;DHT22;1009;51.436;6.972;2023-04-03T15:38:45;10.50;87.00
2012;DHT22;1009;51.436;6.972;2023-04-03T15:41:13;10.20;84.90
2012;DHT22;1009;51.436;6.972;2023-04-03T15:43:40;10.30;87.00
2012;DHT22;1009;51.436;6.972;2023-04-03T15:46:06;10.40;85.50
2012;DHT22;1009;51.436;6.972;2023-04-03T15:48:33;10.20;85.90
2012;DHT22;1009;51.436;6.972;2023-04-03T15:51:00;10.30;88.00
2012;DHT22;1009;51.436;6.972;2023-04-03T15:53:28;10.50;88.00
2012;DHT22;1009;51.436;6.972;2023-04-03T15:55:55;10.50;88.00
2012;DHT22;1009;51.436;6.972;2023-04-03T15:58:23;10.60;89.30
2012;DHT22;1009;51.436;6.972;2023-04-03T16:00:50;10.80;86.70
2012;DHT22;1009;51.436;6.972;2023-04-03T16:03:19;10.80;85.20
2012;DHT22;1009;51.436;6.972;2023-04-03T16:05:47;10.80;86.90
2012;DHT22;1009;51.436;6.972;2023-04-03T16:08:14;10.90;86.70
2012;DHT22;1009;51.436;6.972;2023-04-03T16:10:43;11.10;86.10
2012;DHT22;1009;51.436;6.972;2023-04-03T16:13:11;11.20;85.20
2012;DHT22;1009;51.436;6.972;2023-04-03T16:15:39;11.30;84.70
2012;DHT22;1009;51.436;6.972;2023-04-03T16:18:07;11.00;83.10
2012;DHT22;1009;51.436;6.972;2023-04-03T16:20:34;11.10;85.30
2012;DHT22;1009;51.436;6.972;2023-04-03T16:23:01;10.80;85.80
2012;DHT22;1009;51.436;6.972;2023-04-03T16:25:28;10.50;86.70
2012;DHT22;1009;51.436;6.972;2023-04-03T16:27:56;10.30;87.10
2012;DHT22;1009;51.436;6.972;2023-04-03T16:30:23;9.90;87.00
2012;DHT22;1009;51.436;6.972;2023-04-03T16:32:51;9.90;88.90
2012;DHT22;1009;51.436;6.972;2023-04-03T16:35:18;10.10;87.40
2012;DHT22;1009;51.436;6.972;2023-04-03T16:37:45;10.10;87.20
2012;DHT22;1009;51.436;6.972;2023-04-03T16:40:12;9.80;87.60